Time;durP1;ratioP1;P1;durP2;ratioP2;P2;SDS_P1;SDS_P2;PMS_P1;PMS_P2;Temp;Humidity;BMP_temperature;BMP_pressure;BME280_temperature;BME280_humidity;BME280_pressure;Samples;Min_cycle;Max_cycle;Signal;HPM_P1;HPM_P2
2023/08/25 00:01:30;;;;;;;22.10;13.10;;;;;;;17.37;100.00;99146.54;109636;1251;59606;-70
2023/08/25 00:03:57;;;;;;;18.80;11.60;;;;;;;17.36;100.00;99146.77;109700;1250;66465;-69
2023/08/25 00:06:24;;;;;;;18.10;12.70;;;;;;;17.34;100.00;99145.70;109633;1250;73052;-70
2023/08/25 00:08:51;;;;;;;16.50;12.50;;;;;;;17.30;100.00;99144.50;109650;1250;59063;-71
2023/08/25 00:11:17;;;;;;;19.60;13.00;;;;;;;17.24;100.00;99145.33;109637;1250;58975;-72
2023/08/25 00:13:44;;;;;;;24.80;12.50;;;;;;;17.18;100.00;99146.46;109724;1250;73205;-69
2023/08/25 00:16:11;;;;;;;20.90;11.80;;;;;;;17.14;100.00;99146.83;109651;1250;68171;-71
2023/08/25 00:18:38;;;;;;;23.70;12.60;;;;;;;17.11;100.00;99141.64;109573;1250;72426;-70
2023/08/25 00:21:04;;;;;;;20.20;11.70;;;;;;;17.10;100.00;99134.23;109678;1250;60153;-69
2023/08/25 00:23:31;;;;;;;17.30;11.40;;;;;;;17.08;100.00;99135.89;109675;1250;58998;-67
2023/08/25 00:25:58;;;;;;;18.20;10.60;;;;;;;17.06;100.00;99137.27;109629;1250;74536;-69
2023/08/25 00:28:25;;;;;;;15.50;11.30;;;;;;;17.05;100.00;99132.02;109685;1250;66403;-69
2023/08/25 00:30:52;;;;;;;13.70;10.00;;;;;;;17.04;100.00;99132.13;109653;1250;72338;-70
2023/08/25 00:33:19;;;;;;;15.10;10.40;;;;;;;17.03;100.00;99133.73;109643;1250;60642;-71
2023/08/25 00:35:46;;;;;;;12.40;10.10;;;;;;;17.03;100.00;99133.25;109677;1250;60134;-69
2023/08/25 00:38:14;;;;;;;21.10;11.10;;;;;;;17.03;100.00;99127.71;109672;1250;75454;-70
2023/08/25 00:40:41;;;;;;;16.10;11.20;;;;;;;17.03;100.00;99130.40;109676;1250;59009;-71
2023/08/25 00:43:07;;;;;;;15.70;10.70;;;;;;;17.01;100.00;99128.42;109677;1250;71202;-71
2023/08/25 00:45:37;;;;;;;17.60;11.80;;;;;;;16.97;100.00;99126.06;109570;1250;61710;-71
2023/08/25 00:48:04;;;;;;;16.30;10.50;;;;;;;16.89;100.00;99125.71;109620;1250;60140;-70
2023/08/25 00:50:31;;;;;;;17.00;10.70;;;;;;;16.81;100.00;99125.53;109541;1250;74614;-72
2023/08/25 00:52:57;;;;;;;13.90;10.40;;;;;;;16.73;100.00;99122.95;109658;1250;68604;-71
2023/08/25 00:55:24;;;;;;;12.30;10.00;;;;;;;16.68;100.00;99124.14;109656;1251;72559;-71
2023/08/25 00:57:53;;;;;;;17.90;9.80;;;;;;;16.66;100.00;99123.33;109557;1250;61845;-69
2023/08/25 01:00:20;;;;;;;14.10;10.10;;;;;;;16.63;100.00;99120.67;109466;1251;60046;-68
2023/08/25 01:02:47;;;;;;;17.20;10.70;;;;;;;16.61;100.00;99118.11;109686;1250;73719;-71
2023/08/25 01:05:13;;;;;;;18.90;11.10;;;;;;;16.59;100.00;99115.08;109598;1250;66527;-70
2023/08/25 01:07:43;;;;;;;19.20;11.80;;;;;;;16.55;100.00;99117.70;109525;1250;71231;-70
2023/08/25 01:10:11;;;;;;;16.20;10.20;;;;;;;16.54;100.00;99112.52;109695;1250;59398;-68
2023/08/25 01:12:51;;;;;;;14.10;10.10;;;;;;;16.55;100.00;99109.73;109645;1250;60422;-70
2023/08/25 01:15:22;;;;;;;24.40;10.30;;;;;;;16.56;100.00;99106.62;109604;1250;74355;-70
2023/08/25 01:17:54;;;;;;;24.80;11.20;;;;;;;16.58;100.00;99103.61;109617;1250;67721;-70
2023/08/25 01:20:22;;;;;;;24.00;10.00;;;;;;;16.59;100.00;99103.34;109519;1250;72179;-71
2023/08/25 01:23:04;;;;;;;33.30;11.20;;;;;;;16.61;100.00;99103.90;109536;1250;60219;-70
2023/08/25 01:25:30;;;;;;;23.30;11.60;;;;;;;16.62;100.00;99101.66;109547;1250;59014;-69
2023/08/25 01:27:59;;;;;;;27.60;10.90;;;;;;;16.64;100.00;99104.84;109616;1250;73549;-71
2023/08/25 01:30:26;;;;;;;29.50;10.90;;;;;;;16.64;100.00;99105.75;109680;1254;67655;-69
2023/08/25 01:32:53;;;;;;;30.30;11.50;;;;;;;16.63;100.00;99102.82;109614;1253;71382;-71
2023/08/25 01:35:39;;;;;;;27.50;10.40;;;;;;;16.62;100.00;99096.88;109636;1250;61767;-71
2023/08/25 01:38:28;;;;;;;23.90;9.60;;;;;;;16.63;100.00;99101.16;109553;1251;58877;-72
2023/08/25 01:41:10;;;;;;;23.70;9.30;;;;;;;16.65;100.00;99098.91;109723;1250;73971;-72
2023/08/25 01:43:44;;;;;;;25.40;9.50;;;;;;;16.68;100.00;99100.55;109505;1250;67891;-71
2023/08/25 01:46:11;;;;;;;25.80;10.50;;;;;;;16.69;100.00;99106.39;109645;1250;73517;-71
2023/08/25 01:48:39;;;;;;;24.30;10.00;;;;;;;16.66;100.00;99109.32;109543;1250;59211;-70
2023/08/25 01:51:06;;;;;;;26.80;11.00;;;;;;;16.64;100.00;99110.20;109596;1250;60280;-70
2023/08/25 01:53:32;;;;;;;21.30;10.30;;;;;;;16.58;100.00;99109.79;109674;1250;74500;-72
2023/08/25 01:55:59;;;;;;;21.40;10.00;;;;;;;16.52;100.00;99107.05;109521;1250;67888;-69
2023/08/25 01:58:25;;;;;;;18.70;9.30;;;;;;;16.49;100.00;99112.55;109541;1255;71512;-71
2023/08/25 02:00:52;;;;;;;22.60;9.00;;;;;;;16.44;100.00;99111.14;109515;1251;60469;-72
2023/08/25 02:03:18;;;;;;;26.20;9.10;;;;;;;16.39;100.00;99106.02;109689;1250;59390;-69
2023/08/25 02:05:45;;;;;;;24.90;9.30;;;;;;;16.34;100.00;99106.78;109564;1250;74623;-71
2023/08/25 02:08:12;;;;;;;18.60;10.00;;;;;;;16.27;100.00;99112.33;109639;1250;66355;-69
2023/08/25 02:10:38;;;;;;;20.10;9.30;;;;;;;16.19;100.00;99116.58;109589;1250;71501;-71
2023/08/25 02:13:05;;;;;;;19.60;9.60;;;;;;;16.11;100.00;99112.69;109615;1250;59141;-71
2023/08/25 02:15:32;;;;;;;21.90;9.80;;;;;;;16.04;100.00;99114.27;109531;1250;60130;-69
2023/08/25 02:17:58;;;;;;;22.40;9.80;;;;;;;15.97;100.00;99114.13;109622;1250;75135;-70
2023/08/25 02:20:25;;;;;;;27.90;10.80;;;;;;;15.92;100.00;99116.42;109591;1250;66497;-70
2023/08/25 02:22:51;;;;;;;17.40;9.60;;;;;;;15.90;100.00;99112.45;109636;1250;71266;-69
2023/08/25 02:25:18;;;;;;;19.60;9.30;;;;;;;15.87;100.00;99112.15;109621;1250;61708;-70
2023/08/25 02:27:45;;;;;;;20.50;10.20;;;;;;;15.83;100.00;99112.95;109641;1250;59188;-71
2023/08/25 02:30:13;;;;;;;17.80;9.20;;;;;;;15.78;100.00;99117.43;109606;1250;73133;-68
2023/08/25 02:32:39;;;;;;;15.40;9.50;;;;;;;15.74;100.00;99121.73;109663;1253;65431;-70
2023/08/25 02:35:06;;;;;;;14.70;9.30;;;;;;;15.70;100.00;99124.77;109650;1250;72446;-69
2023/08/25 02:37:33;;;;;;;14.60;9.40;;;;;;;15.68;100.00;99130.38;109536;1251;60589;-69
2023/08/25 02:40:00;;;;;;;14.90;8.80;;;;;;;15.67;100.00;99132.27;109641;1250;58996;-70
2023/08/25 02:42:26;;;;;;;11.60;7.10;;;;;;;15.69;100.00;99134.33;109586;1250;74654;-71
2023/08/25 02:44:53;;;;;;;13.20;6.80;;;;;;;15.72;100.00;99137.00;109691;1250;67762;-67
2023/08/25 02:47:20;;;;;;;12.60;6.50;;;;;;;15.77;100.00;99145.08;109676;1250;71387;-70
2023/08/25 02:49:46;;;;;;;20.70;7.70;;;;;;;15.84;100.00;99156.19;109615;1250;60225;-67
2023/08/25 02:52:13;;;;;;;15.70;8.60;;;;;;;15.90;100.00;99155.29;109602;1250;60089;-69
2023/08/25 02:54:40;;;;;;;13.00;6.70;;;;;;;15.93;100.00;99157.48;109619;1250;74943;-71
2023/08/25 02:57:06;;;;;;;10.90;8.10;;;;;;;15.90;100.00;99153.56;109566;1252;67722;-68
2023/08/25 02:59:34;;;;;;;13.60;8.00;;;;;;;15.85;100.00;99153.92;109564;1250;71183;-68
2023/08/25 03:02:01;;;;;;;18.20;8.00;;;;;;;15.77;100.00;99151.13;109650;1250;60366;-68
2023/08/25 03:04:28;;;;;;;14.30;8.10;;;;;;;15.66;100.00;99148.61;109667;1250;58952;-70
2023/08/25 03:06:55;;;;;;;13.60;8.50;;;;;;;15.50;100.00;99146.41;109704;1250;73237;-69
2023/08/25 03:09:22;;;;;;;11.80;8.40;;;;;;;15.33;100.00;99148.94;109537;1250;66420;-70
2023/08/25 03:11:48;;;;;;;11.90;8.70;;;;;;;15.18;100.00;99153.16;109535;1250;71365;-71
2023/08/25 03:14:15;;;;;;;13.20;8.40;;;;;;;15.07;100.00;99153.58;109510;1250;61970;-71
2023/08/25 03:16:42;;;;;;;10.40;7.90;;;;;;;15.00;100.00;99156.80;109607;1250;60254;-69
2023/08/25 03:19:09;;;;;;;12.30;8.80;;;;;;;14.96;100.00;99159.27;109598;1251;73535;-69
2023/08/25 03:21:35;;;;;;;13.50;8.30;;;;;;;14.96;100.00;99164.46;109641;1250;67913;-69
2023/08/25 03:24:02;;;;;;;10.40;7.90;;;;;;;14.97;100.00;99169.31;109631;1250;73803;-71
2023/08/25 03:26:29;;;;;;;15.40;7.80;;;;;;;14.97;100.00;99175.00;109521;1250;60864;-70
2023/08/25 03:28:55;;;;;;;14.70;8.00;;;;;;;14.96;100.00;99180.11;109512;1250;59035;-71
2023/08/25 03:31:22;;;;;;;17.80;9.50;;;;;;;14.95;100.00;99186.13;109633;1250;74531;-71
2023/08/25 03:33:49;;;;;;;19.10;8.60;;;;;;;14.94;100.00;99186.73;109543;1250;66604;-70
2023/08/25 03:36:16;;;;;;;17.50;8.60;;;;;;;14.94;100.00;99185.44;109524;1251;72434;-70
2023/08/25 03:38:42;;;;;;;10.90;8.10;;;;;;;14.92;100.00;99180.11;109546;1250;60402;-71
2023/08/25 03:41:10;;;;;;;17.80;8.40;;;;;;;14.90;100.00;99177.39;109609;1250;60064;-70
2023/08/25 03:43:37;;;;;;;14.20;8.00;;;;;;;14.88;100.00;99179.63;109690;1250;72627;-70
2023/08/25 03:46:03;;;;;;;14.70;8.00;;;;;;;14.88;100.00;99182.34;109587;1250;66438;-68
2023/08/25 03:48:30;;;;;;;13.10;8.00;;;;;;;14.90;100.00;99179.02;109575;1253;71831;-72
2023/08/25 03:50:57;;;;;;;15.10;8.30;;;;;;;14.95;100.00;99176.05;109646;1250;59052;-70
2023/08/25 03:53:24;;;;;;;11.80;8.10;;;;;;;14.97;100.00;99173.36;109595;1250;59109;-69
2023/08/25 03:55:51;;;;;;;17.30;7.80;;;;;;;14.98;100.00;99168.41;109579;1250;73551;-68
2023/08/25 03:58:18;;;;;;;12.50;7.40;;;;;;;15.01;100.00;99168.74;109633;1250;68959;-70
2023/08/25 04:00:51;;;;;;;12.40;7.40;;;;;;;15.08;100.00;99167.18;109606;1250;72751;-71
2023/08/25 04:03:17;;;;;;;11.80;8.20;;;;;;;15.25;100.00;99170.68;109662;1250;61856;-69
2023/08/25 04:05:45;;;;;;;11.00;7.20;;;;;;;15.47;100.00;99176.39;109707;1250;60146;-67
2023/08/25 04:08:12;;;;;;;21.40;7.60;;;;;;;15.76;100.00;99175.89;109608;1250;75655;-70
2023/08/25 04:10:42;;;;;;;16.50;7.50;;;;;;;16.16;100.00;99171.67;109604;1250;68919;-71
2023/08/25 04:13:10;;;;;;;13.00;7.20;;;;;;;16.63;100.00;99171.98;109511;1250;72528;-71
2023/08/25 04:15:36;;;;;;;15.60;7.70;;;;;;;17.07;100.00;99161.48;109559;1250;60169;-66
2023/08/25 04:18:04;;;;;;;17.10;7.80;;;;;;;17.43;100.00;99150.92;109506;1250;60518;-70
2023/08/25 04:20:32;;;;;;;15.10;7.00;;;;;;;17.68;100.00;99143.48;109581;1250;74617;-70
2023/08/25 04:23:02;;;;;;;13.00;7.70;;;;;;;17.87;100.00;99137.64;109640;1251;66418;-70
2023/08/25 04:25:32;;;;;;;14.30;7.80;;;;;;;18.08;100.00;99138.69;109599;1250;71275;-68
2023/08/25 04:28:00;;;;;;;17.80;7.70;;;;;;;18.33;100.00;99138.73;109554;1250;60164;-68
2023/08/25 04:30:27;;;;;;;12.80;7.20;;;;;;;18.53;100.00;99133.80;109484;1250;59337;-67
2023/08/25 04:32:56;;;;;;;13.50;7.00;;;;;;;18.69;100.00;99130.23;109564;1250;74848;-68
2023/08/25 04:35:23;;;;;;;24.80;7.20;;;;;;;18.85;100.00;99119.80;109578;1250;67775;-66
2023/08/25 04:37:50;;;;;;;15.90;7.30;;;;;;;18.98;100.00;99112.73;109613;1250;71140;-66
2023/08/25 04:40:17;;;;;;;13.60;7.60;;;;;;;19.05;100.00;99114.05;109457;1250;61750;-66
2023/08/25 04:42:44;;;;;;;15.50;7.00;;;;;;;19.08;100.00;99113.96;109571;1250;59483;-64
2023/08/25 04:45:11;;;;;;;10.70;6.60;;;;;;;19.12;100.00;99111.23;109526;1251;73385;-68
2023/08/25 04:47:38;;;;;;;13.70;6.90;;;;;;;19.16;100.00;99112.14;109549;1250;68095;-70
2023/08/25 04:50:07;;;;;;;13.80;6.40;;;;;;;19.21;100.00;99113.61;109533;1251;70488;-73
2023/08/25 04:52:36;;;;;;;12.00;6.30;;;;;;;19.28;100.00;99109.46;109608;1250;60059;-69
2023/08/25 04:55:04;;;;;;;13.50;6.40;;;;;;;19.37;100.00;99108.98;109694;1250;60101;-75
2023/08/25 04:57:31;;;;;;;14.30;6.90;;;;;;;19.46;100.00;99107.20;109443;1250;74501;-75
2023/08/25 04:59:58;;;;;;;10.00;6.60;;;;;;;19.53;100.00;99106.00;109649;1250;68289;-74
2023/08/25 05:02:30;;;;;;;8.90;6.20;;;;;;;19.60;100.00;99104.66;109574;1250;71235;-72
2023/08/25 05:04:56;;;;;;;9.60;6.00;;;;;;;19.65;100.00;99100.45;109543;1250;58949;-69
2023/08/25 05:07:24;;;;;;;7.50;5.60;;;;;;;19.71;100.00;99091.98;109532;1250;60099;-69
2023/08/25 05:09:53;;;;;;;10.70;6.30;;;;;;;19.77;100.00;99091.83;109546;1250;73499;-67
2023/08/25 05:12:20;;;;;;;12.20;5.30;;;;;;;19.79;100.00;99092.91;109496;1250;67684;-68
2023/08/25 05:14:46;;;;;;;11.20;5.40;;;;;;;19.82;100.00;99097.01;109530;1250;72739;-68
2023/08/25 05:17:13;;;;;;;12.40;5.20;;;;;;;19.89;100.00;99093.88;109301;1250;223386;-72
2023/08/25 05:19:40;;;;;;;10.40;5.70;;;;;;;20.07;100.00;99094.73;109569;1250;59113;-69
2023/08/25 05:22:07;;;;;;;9.70;5.50;;;;;;;20.38;100.00;99098.02;109615;1250;59589;-65
2023/08/25 05:24:34;;;;;;;7.60;5.30;;;;;;;20.75;100.00;99102.42;109583;1250;67863;-68
2023/08/25 05:27:00;;;;;;;8.60;5.00;;;;;;;21.12;100.00;99094.48;109451;1250;72566;-69
2023/08/25 05:29:27;;;;;;;5.80;4.70;;;;;;;21.51;100.00;99095.88;109355;1250;59080;-68
2023/08/25 05:31:56;;;;;;;11.50;6.10;;;;;;;22.00;100.00;99095.77;109433;1250;60313;-68
2023/08/25 05:34:31;;;;;;;9.50;5.50;;;;;;;22.53;100.00;99094.35;109540;1250;73450;-68
2023/08/25 05:37:02;;;;;;;6.80;5.40;;;;;;;23.11;100.00;99089.70;109455;1250;66679;-70
2023/08/25 05:39:29;;;;;;;11.00;5.60;;;;;;;23.63;100.00;99094.30;109352;1253;71865;-74
2023/08/25 05:41:55;;;;;;;6.60;5.10;;;;;;;24.15;100.00;99099.86;109561;1250;59449;-69
2023/08/25 05:44:22;;;;;;;13.50;5.70;;;;;;;24.64;100.00;99096.45;109597;1250;59420;-73
2023/08/25 05:46:49;;;;;;;11.70;5.80;;;;;;;25.06;100.00;99097.62;109612;1250;74432;-69
2023/08/25 05:49:17;;;;;;;13.70;5.00;;;;;;;25.48;100.00;99097.79;109630;1251;67968;-71
2023/08/25 05:51:44;;;;;;;7.80;4.50;;;;;;;25.92;100.00;99095.65;109522;1250;70938;-69
2023/08/25 05:54:12;;;;;;;11.70;5.00;;;;;;;26.16;100.00;99094.48;109552;1250;60321;-70
2023/08/25 05:56:39;;;;;;;10.40;5.40;;;;;;;26.13;99.42;99095.52;109567;1250;59009;-67
2023/08/25 05:59:05;;;;;;;12.40;5.60;;;;;;;26.00;98.20;99098.11;109727;1250;73506;-68
2023/08/25 06:01:32;;;;;;;9.40;5.10;;;;;;;25.98;99.86;99100.64;109615;1250;66600;-69
2023/08/25 06:04:00;;;;;;;6.90;4.40;;;;;;;26.12;99.39;99099.39;109650;1250;70528;-69
2023/08/25 06:06:27;;;;;;;15.90;4.80;;;;;;;26.25;96.50;99096.23;109627;1250;59121;-70
2023/08/25 06:08:54;;;;;;;10.40;4.90;;;;;;;26.41;94.35;99092.30;109536;1250;60156;-74
2023/08/25 06:11:22;;;;;;;8.10;5.00;;;;;;;26.64;92.10;99094.73;109490;1251;74856;-75
2023/08/25 06:13:49;;;;;;;7.00;4.30;;;;;;;26.88;89.53;99098.99;109552;1253;67903;-72
2023/08/25 06:16:16;;;;;;;8.30;4.30;;;;;;;27.11;88.26;99096.61;109604;1251;71350;-75
2023/08/25 06:18:42;;;;;;;8.30;4.60;;;;;;;27.42;87.73;99092.83;109623;1250;60330;-72
2023/08/25 06:21:09;;;;;;;9.80;4.00;;;;;;;27.79;83.87;99091.78;109566;1250;58981;-73
2023/08/25 06:23:36;;;;;;;8.30;4.20;;;;;;;28.22;81.63;99085.79;109590;1251;73822;-70
2023/08/25 06:26:02;;;;;;;12.30;4.70;;;;;;;28.73;80.94;99077.98;109647;1250;66637;-71
2023/08/25 06:28:30;;;;;;;10.90;4.20;;;;;;;29.35;76.50;99077.83;109609;1251;72574;-72
2023/08/25 06:30:57;;;;;;;7.80;4.10;;;;;;;29.83;68.82;99072.48;109646;1250;59154;-71
2023/08/25 06:33:23;;;;;;;8.60;4.10;;;;;;;30.18;64.86;99066.51;109519;1250;59049;-72
2023/08/25 06:35:50;;;;;;;8.10;4.20;;;;;;;30.52;61.23;99062.58;109631;1250;75548;-72
2023/08/25 06:38:17;;;;;;;6.40;3.40;;;;;;;30.71;57.19;99069.58;109625;1253;67760;-69
2023/08/25 06:40:44;;;;;;;14.00;3.90;;;;;;;30.84;53.95;99066.36;109505;1250;70856;-69
2023/08/25 06:43:11;;;;;;;12.50;4.70;;;;;;;31.01;53.48;99068.05;109589;1251;60398;-66
2023/08/25 06:45:38;;;;;;;6.10;3.30;;;;;;;31.21;53.31;99065.50;109657;1250;60069;-74
2023/08/25 06:48:05;;;;;;;13.20;4.10;;;;;;;31.48;52.46;99059.77;109640;1250;74921;-72
2023/08/25 06:50:32;;;;;;;9.50;3.70;;;;;;;31.77;49.63;99059.66;109643;1250;66683;-69
2023/08/25 06:52:59;;;;;;;8.40;3.70;;;;;;;31.99;47.80;99056.40;109632;1250;71426;-68
2023/08/25 06:55:25;;;;;;;9.80;4.30;;;;;;;32.13;47.91;99054.50;109594;1250;59023;-75
2023/08/25 06:57:52;;;;;;;9.80;4.70;;;;;;;32.62;45.58;99054.84;109627;1251;59096;-72
2023/08/25 07:00:19;;;;;;;11.30;4.10;;;;;;;33.12;44.08;99055.40;109633;1250;72694;-71
2023/08/25 07:02:45;;;;;;;11.60;3.40;;;;;;;33.62;42.70;99052.44;109663;1250;66810;-69
2023/08/25 07:05:13;;;;;;;7.30;5.00;;;;;;;34.04;40.57;99047.16;109622;1251;72818;-68
2023/08/25 07:07:39;;;;;;;7.80;3.30;;;;;;;34.35;39.04;99046.55;109584;1251;58988;-67
2023/08/25 07:10:06;;;;;;;8.80;3.20;;;;;;;34.58;36.16;99043.05;109601;1251;60150;-72
2023/08/25 07:12:33;;;;;;;5.60;3.70;;;;;;;34.80;35.81;99035.41;109662;1251;73429;-69
2023/08/25 07:15:00;;;;;;;9.10;3.30;;;;;;;34.92;35.69;99033.62;109538;1250;68071;-69
2023/08/25 07:17:26;;;;;;;9.60;3.30;;;;;;;34.71;34.93;99032.64;109545;1251;72940;-68
2023/08/25 07:19:53;;;;;;;5.40;3.40;;;;;;;34.23;35.16;99040.47;109638;1250;59310;-68
2023/08/25 07:22:20;;;;;;;8.00;3.70;;;;;;;33.66;35.77;99052.05;109596;1251;59470;-68
2023/08/25 07:24:50;;;;;;;6.50;3.40;;;;;;;33.27;36.55;99049.44;109646;1250;74684;-68
2023/08/25 07:27:18;;;;;;;9.90;4.00;;;;;;;33.06;37.00;99044.14;109570;1250;68350;-67
2023/08/25 07:29:44;;;;;;;14.20;4.30;;;;;;;33.02;37.58;99045.05;109663;1251;72703;-67
2023/08/25 07:32:11;;;;;;;6.70;3.30;;;;;;;33.20;38.11;99044.44;109637;1253;58927;-67
2023/08/25 07:34:39;;;;;;;17.90;4.30;;;;;;;33.41;37.79;99047.45;109594;1255;60138;-68
2023/08/25 07:37:05;;;;;;;11.20;3.90;;;;;;;33.69;37.23;99044.34;109538;1251;73831;-68
2023/08/25 07:39:32;;;;;;;6.80;4.00;;;;;;;34.01;36.57;99047.36;109697;1250;66510;-69
2023/08/25 07:41:58;;;;;;;5.90;3.70;;;;;;;34.20;35.62;99052.30;109702;1251;72514;-69
2023/08/25 07:44:25;;;;;;;11.70;3.80;;;;;;;34.25;35.25;99055.15;109637;1251;60284;-69
2023/08/25 07:46:51;;;;;;;8.00;4.00;;;;;;;34.41;35.20;99050.70;109610;1251;59978;-68
2023/08/25 07:49:19;;;;;;;5.40;3.20;;;;;;;34.75;34.13;99055.58;109651;1250;73238;-69
2023/08/25 07:51:46;;;;;;;10.50;4.70;;;;;;;34.97;34.29;99054.64;109701;1251;67989;-69
2023/08/25 07:54:12;;;;;;;9.50;3.40;;;;;;;35.11;33.71;99050.59;109676;1251;72493;-69
2023/08/25 07:56:39;;;;;;;11.70;4.10;;;;;;;35.27;33.63;99055.25;109671;1250;60201;-69
2023/08/25 07:59:06;;;;;;;6.50;3.10;;;;;;;35.37;33.30;99050.30;109668;1251;58970;-69
2023/08/25 08:01:33;;;;;;;7.50;2.60;;;;;;;35.30;31.90;99057.02;109551;1254;74445;-69
2023/08/25 08:04:00;;;;;;;2.70;2.10;;;;;;;35.31;30.98;99063.05;109669;1251;66489;-70
2023/08/25 08:06:26;;;;;;;6.10;2.40;;;;;;;35.36;30.24;99061.98;109642;1250;72710;-71
2023/08/25 08:08:53;;;;;;;4.60;2.60;;;;;;;35.34;29.65;99060.71;109635;1254;59061;-72
2023/08/25 08:11:20;;;;;;;5.80;3.10;;;;;;;35.27;29.98;99058.98;109614;1251;60207;-69
2023/08/25 08:13:47;;;;;;;5.90;3.30;;;;;;;35.12;30.45;99058.52;109643;1251;74137;-72
2023/08/25 08:16:13;;;;;;;8.30;3.20;;;;;;;34.95;30.85;99057.01;109626;1250;68399;-70
2023/08/25 08:18:40;;;;;;;3.80;3.00;;;;;;;34.88;31.36;99056.98;109564;1250;71226;-78
2023/08/25 08:21:07;;;;;;;13.90;3.70;;;;;;;34.73;31.77;99058.36;109673;1250;59039;-71
2023/08/25 08:23:33;;;;;;;5.10;3.20;;;;;;;34.58;32.36;99059.36;109678;1251;58901;-69
2023/08/25 08:26:00;;;;;;;5.10;2.70;;;;;;;34.40;32.28;99054.16;109509;1251;72643;-68
2023/08/25 08:28:27;;;;;;;5.30;2.50;;;;;;;34.22;32.78;99056.25;109729;1250;66414;-68
2023/08/25 08:30:57;;;;;;;3.20;2.00;;;;;;;34.14;32.45;99057.66;109583;1251;71529;-72
2023/08/25 08:33:24;;;;;;;3.20;2.40;;;;;;;34.04;31.81;99056.59;109620;1251;60769;-72
2023/08/25 08:35:50;;;;;;;5.00;2.70;;;;;;;34.01;32.17;99056.88;109654;1251;60124;-67
2023/08/25 08:38:17;;;;;;;3.60;2.40;;;;;;;34.02;32.20;99052.73;109621;1251;59290;-69
2023/08/25 08:40:44;;;;;;;13.50;4.90;;;;;;;34.08;32.71;99058.55;109619;1251;67609;-71
2023/08/25 08:43:14;;;;;;;5.00;4.30;;;;;;;34.07;33.57;99061.79;109638;1250;71257;-71
2023/08/25 08:45:41;;;;;;;5.50;3.80;;;;;;;33.98;33.41;99064.48;109524;1251;60213;-71
2023/08/25 08:48:08;;;;;;;10.00;5.20;;;;;;;33.66;33.51;99060.08;109514;1251;60368;-71
2023/08/25 08:50:35;;;;;;;7.60;4.00;;;;;;;33.22;34.83;99062.39;109607;1250;74530;-70
2023/08/25 08:53:04;;;;;;;4.70;3.30;;;;;;;32.84;35.98;99066.23;109685;1251;68019;-68
2023/08/25 08:55:31;;;;;;;5.70;2.90;;;;;;;32.39;36.69;99070.10;109674;1250;72436;-67
2023/08/25 08:57:57;;;;;;;4.10;2.10;;;;;;;32.03;35.94;99068.16;109585;1251;60104;-67
2023/08/25 09:00:24;;;;;;;4.90;2.10;;;;;;;31.70;35.02;99068.27;109637;1251;59004;-67
2023/08/25 09:02:53;;;;;;;3.90;2.30;;;;;;;31.42;35.25;99062.30;109562;1251;74662;-67
2023/08/25 09:05:28;;;;;;;4.20;1.90;;;;;;;31.23;36.40;99068.77;109665;1250;66629;-67
2023/08/25 09:08:03;;;;;;;2.90;2.20;;;;;;;30.91;36.55;99070.32;109591;1250;72656;-68
2023/08/25 09:10:30;;;;;;;4.00;2.50;;;;;;;30.61;37.77;99067.23;109560;1251;60131;-67
2023/08/25 09:12:57;;;;;;;3.30;2.10;;;;;;;30.47;38.15;99058.56;109637;1251;60812;-70
2023/08/25 09:15:27;;;;;;;5.50;2.90;;;;;;;30.29;38.63;99060.14;109595;1250;58895;-68
2023/08/25 09:18:02;;;;;;;7.50;3.00;;;;;;;30.08;39.27;99058.34;109604;1250;66559;-72
2023/08/25 09:20:30;;;;;;;4.60;2.40;;;;;;;29.96;39.82;99054.77;109625;1251;72462;-67
2023/08/25 09:22:57;;;;;;;2.40;2.20;;;;;;;29.90;39.60;99048.41;109660;1251;58932;-72
2023/08/25 09:25:24;;;;;;;6.40;2.00;;;;;;;29.72;38.81;99051.23;109690;1251;58991;-68
2023/08/25 09:27:57;;;;;;;4.10;2.20;;;;;;;29.55;38.72;99049.34;109639;1251;74893;-71
2023/08/25 09:30:35;;;;;;;3.40;2.00;;;;;;;29.58;39.39;99047.29;109682;1251;67902;-69
2023/08/25 09:33:06;;;;;;;4.10;2.30;;;;;;;29.58;39.99;99050.05;109615;1250;72720;-68
2023/08/25 09:35:33;;;;;;;2.20;2.10;;;;;;;29.54;40.51;99043.98;109654;1251;59038;-66
2023/08/25 09:37:59;;;;;;;4.20;2.20;;;;;;;29.46;40.63;99043.81;109627;1250;60192;-67
2023/08/25 09:40:27;;;;;;;6.30;2.20;;;;;;;29.45;40.21;99044.92;109651;1250;74453;-66
2023/08/25 09:43:00;;;;;;;4.60;2.30;;;;;;;29.52;40.57;99041.85;109654;1251;68020;-68
2023/08/25 09:45:28;;;;;;;3.10;1.80;;;;;;;29.70;40.83;99043.16;109650;1250;71457;-66
2023/08/25 09:48:17;;;;;;;3.40;2.10;;;;;;;29.97;40.68;99034.29;109566;1251;59113;-67
2023/08/25 09:50:44;;;;;;;3.80;2.60;;;;;;;30.37;40.31;99036.35;109553;1251;59034;-66
2023/08/25 09:53:12;;;;;;;4.10;2.30;;;;;;;30.55;38.63;99030.84;109648;1250;74391;-67
2023/08/25 09:55:39;;;;;;;2.90;1.90;;;;;;;30.54;38.11;99032.61;109582;1250;67730;-67
2023/08/25 09:58:09;;;;;;;3.40;2.20;;;;;;;30.52;38.25;99029.58;109656;1251;71221;-65
2023/08/25 10:00:39;;;;;;;2.80;2.10;;;;;;;30.56;38.18;99027.41;109607;1250;60420;-67
2023/08/25 10:03:10;;;;;;;3.10;2.00;;;;;;;30.68;38.01;99027.13;109675;1250;60161;-67
2023/08/25 10:05:37;;;;;;;3.00;1.90;;;;;;;30.79;37.90;99024.86;109604;1251;74553;-67
2023/08/25 10:08:07;;;;;;;2.60;2.40;;;;;;;30.82;37.30;99031.54;109657;1254;66216;-67
2023/08/25 10:10:35;;;;;;;3.20;2.40;;;;;;;30.78;37.56;99028.41;109643;1251;72483;-68
2023/08/25 10:13:03;;;;;;;6.60;2.90;;;;;;;30.80;38.04;99023.45;109658;1251;59565;-65
2023/08/25 10:15:31;;;;;;;3.00;2.70;;;;;;;30.90;38.40;99026.67;109680;1250;60367;-67
2023/08/25 10:18:02;;;;;;;4.70;2.00;;;;;;;30.90;37.71;99026.56;109624;1250;74665;-67
2023/08/25 10:20:30;;;;;;;2.20;2.00;;;;;;;30.73;37.65;99025.08;109645;1250;67693;-68
2023/08/25 10:22:56;;;;;;;3.00;1.80;;;;;;;30.56;38.34;99021.21;109633;1250;71567;-68
2023/08/25 10:25:27;;;;;;;6.50;2.40;;;;;;;30.42;38.80;99023.80;109575;1250;59024;-66
2023/08/25 10:27:55;;;;;;;4.70;2.10;;;;;;;30.32;39.13;99020.55;109630;1250;58945;-68
2023/08/25 10:30:22;;;;;;;6.30;1.70;;;;;;;30.22;39.79;99017.48;109576;1250;73202;-68
2023/08/25 10:33:08;;;;;;;3.00;2.10;;;;;;;30.19;39.82;99018.59;109503;1251;67950;-68
2023/08/25 10:35:44;;;;;;;3.30;2.30;;;;;;;30.08;39.47;99015.13;109521;1250;71312;-68
2023/08/25 10:38:20;;;;;;;;;;;;;;;29.86;39.58;99014.08;109507;1250;60029;-68
2023/08/25 10:40:50;;;;;;;3.00;2.10;;;;;;;29.54;40.25;99013.56;109495;1251;58941;-69
2023/08/25 10:43:40;;;;;;;3.90;2.80;;;;;;;29.26;40.80;99019.53;109526;1250;73904;-68
2023/08/25 10:46:07;;;;;;;3.10;2.30;;;;;;;29.16;40.73;99016.14;109509;1251;67694;-68
2023/08/25 10:48:34;;;;;;;3.30;2.20;;;;;;;29.08;40.74;99012.60;109481;1250;72715;-68
2023/08/25 10:51:23;;;;;;;4.70;2.80;;;;;;;29.02;40.97;99010.70;109471;1250;60117;-68
2023/08/25 10:53:51;;;;;;;3.10;2.00;;;;;;;28.90;41.52;99011.73;109485;1250;60021;-68
2023/08/25 10:56:18;;;;;;;2.70;2.50;;;;;;;28.76;41.79;99005.98;109486;1250;74431;-68
2023/08/25 10:59:14;;;;;;;4.70;2.30;;;;;;;28.63;42.29;98997.70;109456;1250;67649;-68
2023/08/25 11:01:54;;;;;;;3.00;2.30;;;;;;;28.53;42.55;98997.58;109430;1250;71122;-69
2023/08/25 11:04:27;;;;;;;7.50;2.50;;;;;;;28.44;43.30;98990.55;109634;1250;58969;-68
2023/08/25 11:06:55;;;;;;;7.10;2.40;;;;;;;28.32;43.33;98986.95;109648;1250;59100;-68
2023/08/25 11:09:26;;;;;;;5.00;2.40;;;;;;;28.17;43.72;98980.80;109664;1250;74526;-68
2023/08/25 11:11:59;;;;;;;5.70;2.80;;;;;;;27.99;44.49;98982.23;109687;1250;67475;-68
2023/08/25 11:14:30;;;;;;;3.90;2.40;;;;;;;27.84;45.72;98979.93;109630;1250;71381;-68
2023/08/25 11:17:07;;;;;;;2.40;2.20;;;;;;;27.78;46.71;98982.97;109559;1251;60183;-68
2023/08/25 11:19:36;;;;;;;3.00;2.00;;;;;;;27.78;46.62;98990.63;109669;1250;59051;-67